sensor_id;sensor_type;location;lat;lon;timestamp;pressure;altitude;pressure_sealevel;temperature;humidity
1480;BME280;732;51.698;4.886;2022-07-23T00:02:10;101889.63;;;18.33;100.00
1480;BME280;732;51.698;4.886;2022-07-23T00:04:40;101975.44;;;18.85;100.00
1480;BME280;732;51.698;4.886;2022-07-23T00:07:08;101959.53;;;18.73;100.00
1480;BME280;732;51.698;4.886;2022-07-23T00:09:37;101925.03;;;18.58;100.00
1480;BME280;732;51.698;4.886;2022-07-23T00:12:06;101942.72;;;18.65;100.00
1480;BME280;732;51.698;4.886;2022-07-23T00:14:34;101945.31;;;18.51;100.00
1480;BME280;732;51.698;4.886;2022-07-23T00:17:03;101923.19;;;18.39;100.00
1480;BME280;732;51.698;4.886;2022-07-23T00:19:31;101992.16;;;18.70;100.00
1480;BME280;732;51.698;4.886;2022-07-23T00:22:01;101945.22;;;18.38;100.00
1480;BME280;732;51.698;4.886;2022-07-23T00:24:30;101984.16;;;18.57;100.00
1480;BME280;732;51.698;4.886;2022-07-23T00:26:58;101962.06;;;18.46;100.00
1480;BME280;732;51.698;4.886;2022-07-23T00:29:27;101987.69;;;18.62;100.00
1480;BME280;732;51.698;4.886;2022-07-23T00:31:56;101963.81;;;18.42;100.00
1480;BME280;732;51.698;4.886;2022-07-23T00:34:27;101947.88;;;18.38;100.00
1480;BME280;732;51.698;4.886;2022-07-23T00:36:56;101941.66;;;18.22;100.00
1480;BME280;732;51.698;4.886;2022-07-23T00:39:26;101953.97;;;18.26;100.00
1480;BME280;732;51.698;4.886;2022-07-23T00:41:54;101971.69;;;18.33;100.00
1480;BME280;732;51.698;4.886;2022-07-23T00:44:25;101946.81;;;18.01;100.00
1480;BME280;732;51.698;4.886;2022-07-23T00:46:56;101979.56;;;18.20;100.00
1480;BME280;732;51.698;4.886;2022-07-23T00:49:27;101990.06;;;18.03;100.00
1480;BME280;732;51.698;4.886;2022-07-23T00:51:56;101987.44;;;18.12;100.00
1480;BME280;732;51.698;4.886;2022-07-23T00:54:27;101942.38;;;17.95;100.00
1480;BME280;732;51.698;4.886;2022-07-23T00:56:55;101945.88;;;17.96;100.00
1480;BME280;732;51.698;4.886;2022-07-23T00:59:24;101938.00;;;18.02;100.00
1480;BME280;732;51.698;4.886;2022-07-23T01:01:52;101910.56;;;17.80;100.00
1480;BME280;732;51.698;4.886;2022-07-23T01:04:21;101919.34;;;17.81;100.00
1480;BME280;732;51.698;4.886;2022-07-23T01:06:49;101944.13;;;17.92;100.00
1480;BME280;732;51.698;4.886;2022-07-23T01:09:18;101932.63;;;17.85;100.00
1480;BME280;732;51.698;4.886;2022-07-23T01:11:48;101922.84;;;17.74;100.00
1480;BME280;732;51.698;4.886;2022-07-23T01:14:19;101944.13;;;17.95;100.00
1480;BME280;732;51.698;4.886;2022-07-23T01:16:49;101923.78;;;17.82;100.00
1480;BME280;732;51.698;4.886;2022-07-23T01:19:18;101907.88;;;17.74;100.00
1480;BME280;732;51.698;4.886;2022-07-23T01:21:49;101918.53;;;17.89;100.00
1480;BME280;732;51.698;4.886;2022-07-23T01:24:20;101916.75;;;17.85;100.00
1480;BME280;732;51.698;4.886;2022-07-23T01:27:07;101928.22;;;17.84;100.00
1480;BME280;732;51.698;4.886;2022-07-23T01:29:37;101925.56;;;17.89;100.00
1480;BME280;732;51.698;4.886;2022-07-23T01:32:16;101918.56;;;17.95;100.00
1480;BME280;732;51.698;4.886;2022-07-23T01:34:45;101927.53;;;18.26;100.00
1480;BME280;732;51.698;4.886;2022-07-23T01:37:14;101922.19;;;18.17;100.00
1480;BME280;732;51.698;4.886;2022-07-23T01:39:44;101931.88;;;18.17;100.00
1480;BME280;732;51.698;4.886;2022-07-23T01:42:13;101929.28;;;18.20;100.00
1480;BME280;732;51.698;4.886;2022-07-23T01:44:43;101920.38;;;18.04;100.00
1480;BME280;732;51.698;4.886;2022-07-23T01:47:17;101928.31;;;18.01;100.00
1480;BME280;732;51.698;4.886;2022-07-23T01:49:48;101939.75;;;17.98;100.00
1480;BME280;732;51.698;4.886;2022-07-23T01:52:20;101944.19;;;18.05;100.00
1480;BME280;732;51.698;4.886;2022-07-23T01:54:51;101930.91;;;17.96;100.00
1480;BME280;732;51.698;4.886;2022-07-23T01:57:20;101945.06;;;18.03;100.00
1480;BME280;732;51.698;4.886;2022-07-23T01:59:49;101927.38;;;17.94;100.00
1480;BME280;732;51.698;4.886;2022-07-23T02:02:20;101960.06;;;18.05;100.00
1480;BME280;732;51.698;4.886;2022-07-23T02:04:48;101940.69;;;18.05;100.00
1480;BME280;732;51.698;4.886;2022-07-23T02:07:19;101907.06;;;17.86;100.00
1480;BME280;732;51.698;4.886;2022-07-23T02:09:47;101937.13;;;18.06;100.00
1480;BME280;732;51.698;4.886;2022-07-23T02:12:17;101917.69;;;17.98;100.00
1480;BME280;732;51.698;4.886;2022-07-23T02:14:46;101947.75;;;18.12;100.00
1480;BME280;732;51.698;4.886;2022-07-23T02:17:15;101943.41;;;18.20;100.00
1480;BME280;732;51.698;4.886;2022-07-23T02:19:43;101943.31;;;18.08;100.00
1480;BME280;732;51.698;4.886;2022-07-23T02:22:12;101955.69;;;18.12;100.00
1480;BME280;732;51.698;4.886;2022-07-23T02:24:40;101916.78;;;17.91;100.00
1480;BME280;732;51.698;4.886;2022-07-23T02:27:09;101962.66;;;17.98;100.00
1480;BME280;732;51.698;4.886;2022-07-23T02:29:39;101913.19;;;17.80;100.00
1480;BME280;732;51.698;4.886;2022-07-23T02:32:08;101932.66;;;17.91;100.00
1480;BME280;732;51.698;4.886;2022-07-23T02:34:39;101913.16;;;17.77;100.00
1480;BME280;732;51.698;4.886;2022-07-23T02:37:08;101950.28;;;17.88;100.00
1480;BME280;732;51.698;4.886;2022-07-23T02:39:37;101952.91;;;17.88;100.00
1480;BME280;732;51.698;4.886;2022-07-23T02:42:05;101882.91;;;17.36;100.00
1480;BME280;732;51.698;4.886;2022-07-23T02:44:35;101950.09;;;17.62;100.00
1480;BME280;732;51.698;4.886;2022-07-23T02:47:05;101953.63;;;17.61;100.00
1480;BME280;732;51.698;4.886;2022-07-23T02:49:36;101948.31;;;17.58;100.00
1480;BME280;732;51.698;4.886;2022-07-23T02:52:06;101926.13;;;17.46;100.00
1480;BME280;732;51.698;4.886;2022-07-23T02:54:35;101968.53;;;17.55;100.00
1480;BME280;732;51.698;4.886;2022-07-23T02:57:04;101932.13;;;17.22;100.00
1480;BME280;732;51.698;4.886;2022-07-23T02:59:32;101968.44;;;17.44;100.00
1480;BME280;732;51.698;4.886;2022-07-23T03:02:01;101968.38;;;17.38;100.00
1480;BME280;732;51.698;4.886;2022-07-23T03:04:31;101978.94;;;17.35;100.00
1480;BME280;732;51.698;4.886;2022-07-23T03:07:00;101970.94;;;17.29;100.00
1480;BME280;732;51.698;4.886;2022-07-23T03:09:29;101973.66;;;17.40;100.00
1480;BME280;732;51.698;4.886;2022-07-23T03:11:57;101958.63;;;17.30;100.00
1480;BME280;732;51.698;4.886;2022-07-23T03:14:26;101968.28;;;17.28;100.00
1480;BME280;732;51.698;4.886;2022-07-23T03:16:55;101973.56;;;17.28;100.00
1480;BME280;732;51.698;4.886;2022-07-23T03:19:23;101974.44;;;17.27;100.00
1480;BME280;732;51.698;4.886;2022-07-23T03:21:53;101981.50;;;17.31;100.00
1480;BME280;732;51.698;4.886;2022-07-23T03:24:22;101955.78;;;17.08;100.00
1480;BME280;732;51.698;4.886;2022-07-23T03:27:13;101951.41;;;17.12;100.00
1480;BME280;732;51.698;4.886;2022-07-23T03:29:41;101941.59;;;17.02;100.00
1480;BME280;732;51.698;4.886;2022-07-23T03:32:10;101962.88;;;17.12;100.00
1480;BME280;732;51.698;4.886;2022-07-23T03:34:39;101968.16;;;17.17;100.00
1480;BME280;732;51.698;4.886;2022-07-23T03:37:10;101939.78;;;16.95;100.00
1480;BME280;732;51.698;4.886;2022-07-23T03:39:39;101960.09;;;17.02;100.00
1480;BME280;732;51.698;4.886;2022-07-23T03:42:08;101967.19;;;17.06;100.00
1480;BME280;732;51.698;4.886;2022-07-23T03:44:37;101941.50;;;16.90;100.00
1480;BME280;732;51.698;4.886;2022-07-23T03:47:06;101959.22;;;17.00;100.00
1480;BME280;732;51.698;4.886;2022-07-23T03:49:34;101956.63;;;17.06;100.00
1480;BME280;732;51.698;4.886;2022-07-23T03:52:04;101940.63;;;16.89;100.00
1480;BME280;732;51.698;4.886;2022-07-23T03:54:34;101998.13;;;17.17;100.00
1480;BME280;732;51.698;4.886;2022-07-23T03:57:03;101974.25;;;17.05;100.00
1480;BME280;732;51.698;4.886;2022-07-23T03:59:32;101972.59;;;17.15;100.00
1480;BME280;732;51.698;4.886;2022-07-23T04:02:01;101995.69;;;17.40;100.00
1480;BME280;732;51.698;4.886;2022-07-23T04:04:30;101954.94;;;17.14;100.00
1480;BME280;732;51.698;4.886;2022-07-23T04:06:58;101994.78;;;17.34;100.00
1480;BME280;732;51.698;4.886;2022-07-23T04:09:29;102005.50;;;17.49;100.00
1480;BME280;732;51.698;4.886;2022-07-23T04:11:59;102001.19;;;17.60;100.00
1480;BME280;732;51.698;4.886;2022-07-23T04:14:29;102003.91;;;17.69;100.00
1480;BME280;732;51.698;4.886;2022-07-23T04:16:57;101998.69;;;17.79;100.00
1480;BME280;732;51.698;4.886;2022-07-23T04:19:26;101986.44;;;17.92;100.00
1480;BME280;732;51.698;4.886;2022-07-23T04:22:01;101995.28;;;17.98;100.00
1480;BME280;732;51.698;4.886;2022-07-23T04:24:32;102003.28;;;18.07;100.00
1480;BME280;732;51.698;4.886;2022-07-23T04:27:03;101991.00;;;18.13;100.00
1480;BME280;732;51.698;4.886;2022-07-23T04:29:32;101967.13;;;18.08;100.00
1480;BME280;732;51.698;4.886;2022-07-23T04:32:01;101967.13;;;18.09;100.00
1480;BME280;732;51.698;4.886;2022-07-23T04:34:30;101996.38;;;18.34;100.00
1480;BME280;732;51.698;4.886;2022-07-23T04:36:59;101998.22;;;18.44;100.00
1480;BME280;732;51.698;4.886;2022-07-23T04:39:30;102004.47;;;18.64;100.00
1480;BME280;732;51.698;4.886;2022-07-23T04:42:02;101946.97;;;18.33;100.00
1480;BME280;732;51.698;4.886;2022-07-23T04:44:31;101954.13;;;18.43;100.00
1480;BME280;732;51.698;4.886;2022-07-23T04:47:02;101974.47;;;18.59;100.00
1480;BME280;732;51.698;4.886;2022-07-23T04:49:30;101948.81;;;18.43;100.00
1480;BME280;732;51.698;4.886;2022-07-23T04:51:59;101949.69;;;18.42;100.00
1480;BME280;732;51.698;4.886;2022-07-23T04:54:28;101993.94;;;18.76;100.00
1480;BME280;732;51.698;4.886;2022-07-23T04:56:57;102001.03;;;18.84;100.00
1480;BME280;732;51.698;4.886;2022-07-23T04:59:27;101967.41;;;18.62;100.00
1480;BME280;732;51.698;4.886;2022-07-23T05:02:00;101978.03;;;18.67;100.00
1480;BME280;732;51.698;4.886;2022-07-23T05:04:29;101969.16;;;18.56;100.00
1480;BME280;732;51.698;4.886;2022-07-23T05:06:59;101977.97;;;18.50;100.00
1480;BME280;732;51.698;4.886;2022-07-23T05:09:27;101940.69;;;18.05;100.00
1480;BME280;732;51.698;4.886;2022-07-23T05:11:56;101993.75;;;18.41;100.00
1480;BME280;732;51.698;4.886;2022-07-23T05:14:26;102007.81;;;18.22;100.00
1480;BME280;732;51.698;4.886;2022-07-23T05:16:55;102018.44;;;18.30;100.00
1480;BME280;732;51.698;4.886;2022-07-23T05:19:25;101990.06;;;18.04;100.00
1480;BME280;732;51.698;4.886;2022-07-23T05:21:53;102010.50;;;18.31;100.00
1480;BME280;732;51.698;4.886;2022-07-23T05:24:22;101981.25;;;18.13;100.00
1480;BME280;732;51.698;4.886;2022-07-23T05:26:51;101987.50;;;18.18;100.00
1480;BME280;732;51.698;4.886;2022-07-23T05:29:21;101968.94;;;18.13;100.00
1480;BME280;732;51.698;4.886;2022-07-23T05:31:51;102032.69;;;18.50;100.00
1480;BME280;732;51.698;4.886;2022-07-23T05:34:20;102026.38;;;18.34;100.00
1480;BME280;732;51.698;4.886;2022-07-23T05:36:49;101967.94;;;17.96;100.00
1480;BME280;732;51.698;4.886;2022-07-23T05:39:17;102013.94;;;18.18;100.00
1480;BME280;732;51.698;4.886;2022-07-23T05:41:45;101986.63;;;18.24;100.00
1480;BME280;732;51.698;4.886;2022-07-23T05:44:14;102034.50;;;18.67;100.00
1480;BME280;732;51.698;4.886;2022-07-23T05:46:44;102024.75;;;18.54;100.00
1480;BME280;732;51.698;4.886;2022-07-23T05:49:19;102028.25;;;18.46;100.00
1480;BME280;732;51.698;4.886;2022-07-23T05:51:47;102000.88;;;18.45;100.00
1480;BME280;732;51.698;4.886;2022-07-23T05:54:22;102026.53;;;18.58;100.00
1480;BME280;732;51.698;4.886;2022-07-23T05:56:51;102014.16;;;18.50;100.00
1480;BME280;732;51.698;4.886;2022-07-23T05:59:19;102033.63;;;18.58;100.00
1480;BME280;732;51.698;4.886;2022-07-23T06:01:48;102018.63;;;18.63;100.00
1480;BME280;732;51.698;4.886;2022-07-23T06:04:16;102013.31;;;18.67;100.00
1480;BME280;732;51.698;4.886;2022-07-23T06:06:57;102040.81;;;18.96;100.00
1480;BME280;732;51.698;4.886;2022-07-23T06:09:26;102041.72;;;19.11;100.00
1480;BME280;732;51.698;4.886;2022-07-23T06:11:54;102042.59;;;19.13;100.00
1480;BME280;732;51.698;4.886;2022-07-23T06:14:23;101990.41;;;18.74;100.00
1480;BME280;732;51.698;4.886;2022-07-23T06:16:55;102010.81;;;18.99;100.00
1480;BME280;732;51.698;4.886;2022-07-23T06:19:24;102037.34;;;19.17;100.00
1480;BME280;732;51.698;4.886;2022-07-23T06:21:53;102013.50;;;19.23;100.00
1480;BME280;732;51.698;4.886;2022-07-23T06:24:23;102023.22;;;19.30;100.00
1480;BME280;732;51.698;4.886;2022-07-23T06:26:52;102024.16;;;19.44;100.00
1480;BME280;732;51.698;4.886;2022-07-23T06:29:21;101986.97;;;19.28;100.00
1480;BME280;732;51.698;4.886;2022-07-23T06:31:49;102026.81;;;19.58;100.00
1480;BME280;732;51.698;4.886;2022-07-23T06:34:18;102024.13;;;19.59;100.00
1480;BME280;732;51.698;4.886;2022-07-23T06:36:46;102003.81;;;19.54;100.00
1480;BME280;732;51.698;4.886;2022-07-23T06:39:14;102008.25;;;19.62;100.00
1480;BME280;732;51.698;4.886;2022-07-23T06:41:48;101988.78;;;19.56;100.00
1480;BME280;732;51.698;4.886;2022-07-23T06:44:36;102001.16;;;19.75;100.00
1480;BME280;732;51.698;4.886;2022-07-23T06:47:07;102026.81;;;19.85;100.00
1480;BME280;732;51.698;4.886;2022-07-23T06:49:36;101990.56;;;19.78;100.00
1480;BME280;732;51.698;4.886;2022-07-23T06:52:04;102026.75;;;20.11;100.00
1480;BME280;732;51.698;4.886;2022-07-23T06:54:33;102027.63;;;20.14;100.00
1480;BME280;732;51.698;4.886;2022-07-23T06:57:03;102016.16;;;20.09;100.00
1480;BME280;732;51.698;4.886;2022-07-23T06:59:32;101983.41;;;20.02;100.00
1480;BME280;732;51.698;4.886;2022-07-23T07:02:03;102018.72;;;20.48;100.00
1480;BME280;732;51.698;4.886;2022-07-23T07:04:32;102023.13;;;20.52;100.00
1480;BME280;732;51.698;4.886;2022-07-23T07:07:00;102004.63;;;20.31;100.00
1480;BME280;732;51.698;4.886;2022-07-23T07:09:29;101999.31;;;20.25;100.00
1480;BME280;732;51.698;4.886;2022-07-23T07:11:57;102028.47;;;20.46;100.00
1480;BME280;732;51.698;4.886;2022-07-23T07:14:27;102039.09;;;20.49;100.00
1480;BME280;732;51.698;4.886;2022-07-23T07:16:55;102049.66;;;20.67;100.00
1480;BME280;732;51.698;4.886;2022-07-23T07:19:24;102016.03;;;20.62;100.00
1480;BME280;732;51.698;4.886;2022-07-23T07:21:52;102047.78;;;20.86;100.00
1480;BME280;732;51.698;4.886;2022-07-23T07:24:20;102048.59;;;20.99;100.00
1480;BME280;732;51.698;4.886;2022-07-23T07:26:55;102030.88;;;20.99;100.00
1480;BME280;732;51.698;4.886;2022-07-23T07:29:24;102039.72;;;21.15;100.00
1480;BME280;732;51.698;4.886;2022-07-23T07:31:53;102007.00;;;20.93;100.00
1480;BME280;732;51.698;4.886;2022-07-23T07:34:22;101994.59;;;21.01;100.00
1480;BME280;732;51.698;4.886;2022-07-23T07:36:50;102015.78;;;21.12;100.00
1480;BME280;732;51.698;4.886;2022-07-23T07:39:19;102037.03;;;21.18;100.00
1480;BME280;732;51.698;4.886;2022-07-23T07:41:47;102036.06;;;21.25;100.00
1480;BME280;732;51.698;4.886;2022-07-23T07:44:15;102024.59;;;21.20;100.00
1480;BME280;732;51.698;4.886;2022-07-23T07:46:44;101985.63;;;21.14;100.00
1480;BME280;732;51.698;4.886;2022-07-23T07:49:14;102040.31;;;21.54;100.00
1480;BME280;732;51.698;4.886;2022-07-23T07:51:48;102022.66;;;21.43;100.00
1480;BME280;732;51.698;4.886;2022-07-23T07:54:18;102024.34;;;21.56;100.00
1480;BME280;732;51.698;4.886;2022-07-23T07:56:47;101999.31;;;21.78;100.00
1480;BME280;732;51.698;4.886;2022-07-23T07:59:16;102034.03;;;22.57;100.00
1480;BME280;732;51.698;4.886;2022-07-23T08:01:44;101989.34;;;23.38;100.00
1480;BME280;732;51.698;4.886;2022-07-23T08:04:14;102019.00;;;24.68;100.00
1480;BME280;732;51.698;4.886;2022-07-23T08:06:42;102025.00;;;25.92;100.00
1480;BME280;732;51.698;4.886;2022-07-23T08:09:11;101990.00;;;26.91;100.00
1480;BME280;732;51.698;4.886;2022-07-23T08:11:39;102021.63;;;27.91;100.00
1480;BME280;732;51.698;4.886;2022-07-23T08:14:07;102025.19;;;28.67;100.00
1480;BME280;732;51.698;4.886;2022-07-23T08:16:38;101986.63;;;28.66;100.00
1480;BME280;732;51.698;4.886;2022-07-23T08:19:28;102012.16;;;29.46;100.00
1480;BME280;732;51.698;4.886;2022-07-23T08:21:56;102034.31;;;29.95;100.00
1480;BME280;732;51.698;4.886;2022-07-23T08:24:25;102007.53;;;29.71;100.00
1480;BME280;732;51.698;4.886;2022-07-23T08:26:53;102018.53;;;29.65;100.00
1480;BME280;732;51.698;4.886;2022-07-23T08:29:22;102036.19;;;29.73;100.00
1480;BME280;732;51.698;4.886;2022-07-23T08:31:53;102045.91;;;30.18;100.00
1480;BME280;732;51.698;4.886;2022-07-23T08:34:22;102039.69;;;30.37;100.00
1480;BME280;732;51.698;4.886;2022-07-23T08:36:51;102042.06;;;30.23;100.00
1480;BME280;732;51.698;4.886;2022-07-23T08:39:20;102028.09;;;30.35;100.00
1480;BME280;732;51.698;4.886;2022-07-23T08:41:49;102012.53;;;29.80;100.00
1480;BME280;732;51.698;4.886;2022-07-23T08:44:18;102050.63;;;28.58;100.00
1480;BME280;732;51.698;4.886;2022-07-23T08:46:46;102026.06;;;27.93;100.00
1480;BME280;732;51.698;4.886;2022-07-23T08:49:16;102020.88;;;27.87;100.00
1480;BME280;732;51.698;4.886;2022-07-23T08:51:44;102032.31;;;27.94;100.00
1480;BME280;732;51.698;4.886;2022-07-23T08:54:16;102018.53;;;28.03;100.00
1480;BME280;732;51.698;4.886;2022-07-23T08:56:44;102041.78;;;29.01;100.00
1480;BME280;732;51.698;4.886;2022-07-23T08:59:12;101997.00;;;29.22;100.00
1480;BME280;732;51.698;4.886;2022-07-23T09:01:41;102026.22;;;29.75;100.00
1480;BME280;732;51.698;4.886;2022-07-23T09:04:11;102015.03;;;29.84;100.00
1480;BME280;732;51.698;4.886;2022-07-23T09:06:39;102024.53;;;29.73;100.00
1480;BME280;732;51.698;4.886;2022-07-23T09:09:19;102017.78;;;29.61;100.00
1480;BME280;732;51.698;4.886;2022-07-23T09:11:48;102021.25;;;29.86;100.00
1480;BME280;732;51.698;4.886;2022-07-23T09:14:37;102012.16;;;30.09;100.00
1480;BME280;732;51.698;4.886;2022-07-23T09:17:11;102039.53;;;30.00;100.00
1480;BME280;732;51.698;4.886;2022-07-23T09:19:41;102021.19;;;29.23;100.00
1480;BME280;732;51.698;4.886;2022-07-23T09:22:21;102029.28;;;29.45;100.00
1480;BME280;732;51.698;4.886;2022-07-23T09:25:10;102035.78;;;29.61;100.00
1480;BME280;732;51.698;4.886;2022-07-23T09:27:53;102021.09;;;29.89;100.00
1480;BME280;732;51.698;4.886;2022-07-23T09:30:24;102046.81;;;30.18;100.00
1480;BME280;732;51.698;4.886;2022-07-23T09:33:05;102045.66;;;30.24;100.00
1480;BME280;732;51.698;4.886;2022-07-23T09:35:49;102016.06;;;30.22;100.00
1480;BME280;732;51.698;4.886;2022-07-23T09:38:20;101998.59;;;29.90;100.00
1480;BME280;732;51.698;4.886;2022-07-23T09:41:10;102025.31;;;30.17;100.00
1480;BME280;732;51.698;4.886;2022-07-23T09:43:38;102045.59;;;30.25;100.00
1480;BME280;732;51.698;4.886;2022-07-23T09:46:22;102032.47;;;30.38;100.00
1480;BME280;732;51.698;4.886;2022-07-23T09:48:51;102049.00;;;30.30;100.00
1480;BME280;732;51.698;4.886;2022-07-23T09:51:21;102005.25;;;29.60;100.00
1480;BME280;732;51.698;4.886;2022-07-23T09:53:56;102048.53;;;29.79;100.00
1480;BME280;732;51.698;4.886;2022-07-23T09:56:28;102047.72;;;28.87;100.00
1480;BME280;732;51.698;4.886;2022-07-23T09:58:57;102050.41;;;28.64;100.00
1480;BME280;732;51.698;4.886;2022-07-23T10:01:33;102045.75;;;29.37;100.00
1480;BME280;732;51.698;4.886;2022-07-23T10:04:03;102049.84;;;29.90;100.00
1480;BME280;732;51.698;4.886;2022-07-23T10:06:55;102027.00;;;30.39;100.00
1480;BME280;732;51.698;4.886;2022-07-23T10:09:42;102038.84;;;30.55;100.00
1480;BME280;732;51.698;4.886;2022-07-23T10:12:32;102044.53;;;30.68;100.00
1480;BME280;732;51.698;4.886;2022-07-23T10:15:17;102044.69;;;30.85;100.00
1480;BME280;732;51.698;4.886;2022-07-23T10:17:46;102041.00;;;30.67;100.00
1480;BME280;732;51.698;4.886;2022-07-23T10:20:14;102034.56;;;30.31;100.00
1480;BME280;732;51.698;4.886;2022-07-23T10:22:53;102041.94;;;30.86;100.00
1480;BME280;732;51.698;4.886;2022-07-23T10:25:32;102029.97;;;30.92;100.00
1480;BME280;732;51.698;4.886;2022-07-23T10:28:46;102015.25;;;30.79;100.00
1480;BME280;732;51.698;4.886;2022-07-23T10:31:33;102031.19;;;30.85;100.00
1480;BME280;732;51.698;4.886;2022-07-23T10:34:31;102028.06;;;30.74;100.00
1480;BME280;732;51.698;4.886;2022-07-23T10:37:13;102014.28;;;30.21;100.00
1480;BME280;732;51.698;4.886;2022-07-23T10:39:48;102027.47;;;30.49;100.00
1480;BME280;732;51.698;4.886;2022-07-23T10:42:37;102000.47;;;30.49;100.00
1480;BME280;732;51.698;4.886;2022-07-23T10:45:27;102034.91;;;31.01;100.00
1480;BME280;732;51.698;4.886;2022-07-23T10:48:13;102036.00;;;30.97;100.00
1480;BME280;732;51.698;4.886;2022-07-23T10:50:43;102014.44;;;30.58;100.00
1480;BME280;732;51.698;4.886;2022-07-23T10:53:15;102005.66;;;30.72;100.00
1480;BME280;732;51.698;4.886;2022-07-23T10:55:51;102036.72;;;30.43;100.00
1480;BME280;732;51.698;4.886;2022-07-23T10:58:23;102000.63;;;30.05;100.00
1480;BME280;732;51.698;4.886;2022-07-23T11:01:36;101981.75;;;30.05;100.00
1480;BME280;732;51.698;4.886;2022-07-23T11:04:05;102035.53;;;29.45;100.00
1480;BME280;732;51.698;4.886;2022-07-23T11:07:07;102012.72;;;29.54;100.00
1480;BME280;732;51.698;4.886;2022-07-23T11:09:41;102027.97;;;29.76;100.00
1480;BME280;732;51.698;4.886;2022-07-23T11:12:33;102025.34;;;29.75;100.00
1480;BME280;732;51.698;4.886;2022-07-23T11:15:07;102002.16;;;29.49;100.00
1480;BME280;732;51.698;4.886;2022-07-23T11:17:58;102037.09;;;29.29;100.00
1480;BME280;732;51.698;4.886;2022-07-23T11:20:28;101993.25;;;29.47;100.00
1480;BME280;732;51.698;4.886;2022-07-23T11:22:58;102004.41;;;30.01;100.00
1480;BME280;732;51.698;4.886;2022-07-23T11:25:34;102034.75;;;30.27;100.00
1480;BME280;732;51.698;4.886;2022-07-23T11:28:15;102036.69;;;30.23;100.00
1480;BME280;732;51.698;4.886;2022-07-23T11:30:45;102018.22;;;30.34;100.00
1480;BME280;732;51.698;4.886;2022-07-23T11:33:21;102029.22;;;30.50;100.00
1480;BME280;732;51.698;4.886;2022-07-23T11:36:01;101997.03;;;30.05;100.00
1480;BME280;732;51.698;4.886;2022-07-23T11:38:31;102009.41;;;29.89;100.00
1480;BME280;732;51.698;4.886;2022-07-23T11:41:00;102037.81;;;30.18;100.00
1480;BME280;732;51.698;4.886;2022-07-23T11:43:29;102031.28;;;29.83;100.00
1480;BME280;732;51.698;4.886;2022-07-23T11:45:59;102021.25;;;29.43;100.00
1480;BME280;732;51.698;4.886;2022-07-23T11:48:30;102033.88;;;29.63;100.00
1480;BME280;732;51.698;4.886;2022-07-23T11:51:07;102022.16;;;29.85;100.00
1480;BME280;732;51.698;4.886;2022-07-23T11:53:36;102026.56;;;29.88;100.00
1480;BME280;732;51.698;4.886;2022-07-23T11:56:07;102003.59;;;29.99;100.00
1480;BME280;732;51.698;4.886;2022-07-23T11:58:36;101994.63;;;30.39;100.00
1480;BME280;732;51.698;4.886;2022-07-23T12:01:06;102008.28;;;30.55;100.00
1480;BME280;732;51.698;4.886;2022-07-23T12:03:50;101996.97;;;30.47;100.00
1480;BME280;732;51.698;4.886;2022-07-23T12:06:19;101991.34;;;30.51;100.00
1480;BME280;732;51.698;4.886;2022-07-23T12:08:47;101956.03;;;30.37;100.00
1480;BME280;732;51.698;4.886;2022-07-23T12:11:16;101989.25;;;30.58;100.00
1480;BME280;732;51.698;4.886;2022-07-23T12:13:56;102006.50;;;30.35;100.00
1480;BME280;732;51.698;4.886;2022-07-23T12:16:25;102011.75;;;30.38;100.00
1480;BME280;732;51.698;4.886;2022-07-23T12:18:56;102009.44;;;30.49;100.00
1480;BME280;732;51.698;4.886;2022-07-23T12:21:25;101973.78;;;30.23;100.00
1480;BME280;732;51.698;4.886;2022-07-23T12:24:06;101947.94;;;30.37;100.00
1480;BME280;732;51.698;4.886;2022-07-23T12:26:37;102003.75;;;31.13;100.00
1480;BME280;732;51.698;4.886;2022-07-23T12:29:06;101972.50;;;31.07;100.00
1480;BME280;732;51.698;4.886;2022-07-23T12:31:34;101957.84;;;30.94;100.00
1480;BME280;732;51.698;4.886;2022-07-23T12:34:15;101959.00;;;30.88;100.00
1480;BME280;732;51.698;4.886;2022-07-23T12:36:43;101998.97;;;31.18;100.00
1480;BME280;732;51.698;4.886;2022-07-23T12:39:12;101940.97;;;30.89;100.00
1480;BME280;732;51.698;4.886;2022-07-23T12:41:57;101998.84;;;30.83;99.83
1480;BME280;732;51.698;4.886;2022-07-23T12:44:25;101970.78;;;30.49;100.00
1480;BME280;732;51.698;4.886;2022-07-23T12:46:53;101981.84;;;30.43;100.00
1480;BME280;732;51.698;4.886;2022-07-23T12:49:27;101985.41;;;30.23;100.00
1480;BME280;732;51.698;4.886;2022-07-23T12:51:56;101993.09;;;30.34;100.00
1480;BME280;732;51.698;4.886;2022-07-23T12:54:28;101949.69;;;30.18;100.00
1480;BME280;732;51.698;4.886;2022-07-23T12:56:56;101976.19;;;30.08;100.00
1480;BME280;732;51.698;4.886;2022-07-23T12:59:31;101989.88;;;30.04;100.00
1480;BME280;732;51.698;4.886;2022-07-23T13:02:00;101988.81;;;29.88;100.00
1480;BME280;732;51.698;4.886;2022-07-23T13:04:30;101981.44;;;30.11;100.00
1480;BME280;732;51.698;4.886;2022-07-23T13:07:01;101973.47;;;30.30;100.00
1480;BME280;732;51.698;4.886;2022-07-23T13:09:33;101988.44;;;30.56;100.00
1480;BME280;732;51.698;4.886;2022-07-23T13:12:09;101959.66;;;30.16;100.00
1480;BME280;732;51.698;4.886;2022-07-23T13:14:39;101958.16;;;30.68;100.00
1480;BME280;732;51.698;4.886;2022-07-23T13:17:11;101957.81;;;31.13;100.00
1480;BME280;732;51.698;4.886;2022-07-23T13:19:41;101982.94;;;31.32;100.00
1480;BME280;732;51.698;4.886;2022-07-23T13:22:09;101968.22;;;31.39;100.00
1480;BME280;732;51.698;4.886;2022-07-23T13:24:38;101975.69;;;31.51;100.00
1480;BME280;732;51.698;4.886;2022-07-23T13:27:07;101946.50;;;31.05;100.00
1480;BME280;732;51.698;4.886;2022-07-23T13:29:38;101959.88;;;30.89;100.00
1480;BME280;732;51.698;4.886;2022-07-23T13:32:08;101939.63;;;31.16;100.00
1480;BME280;732;51.698;4.886;2022-07-23T13:34:41;101954.44;;;31.08;100.00